Time;durP1;ratioP1;P1;durP2;ratioP2;P2;SDS_P1;SDS_P2;PMS_P1;PMS_P2;Temp;Humidity;BMP_temperature;BMP_pressure;BME280_temperature;BME280_humidity;BME280_pressure;Samples;Min_cycle;Max_cycle;Signal;HPM_P1;HPM_P2
2022/05/22 00:01:44;;;;;;;;;;;;;;;11.75;72.24;99516.75;107741;1270;109233;-68
2022/05/22 00:04:15;;;;;;;;;;;;;;;11.72;72.20;99521.02;107725;1270;124632;-68
2022/05/22 00:06:46;;;;;;;;;;;;;;;11.72;72.18;99513.41;107727;1270;94803;-68
2022/05/22 00:09:17;;;;;;;;;;;;;;;11.74;72.28;99509.98;106595;1272;111198;-67
2022/05/22 00:11:47;;;;;;;;;;;;;;;11.75;72.25;99510.11;106791;1271;124486;-68
2022/05/22 00:14:18;;;;;;;;;;;;;;;11.77;72.25;99516.45;107514;1271;107906;-68
2022/05/22 00:16:49;;;;;;;;;;;;;;;11.78;72.19;99513.80;106906;1271;124568;-67
2022/05/22 00:19:21;;;;;;;;;;;;;;;11.78;72.10;99515.37;107823;1271;94867;-68
2022/05/22 00:21:51;;;;;;;;;;;;;;;11.76;72.06;99516.84;107747;1271;124817;-68
2022/05/22 00:24:25;;;;;;;;;;;;;;;11.81;72.31;99517.87;107748;1270;108836;-68
2022/05/22 00:26:56;;;;;;;;;;;;;;;11.84;72.16;99514.56;106683;1270;109157;-68
2022/05/22 00:29:28;;;;;;;;;;;;;;;11.88;71.99;99514.03;106169;1270;124044;-68
2022/05/22 00:31:58;;;;;;;;;;;;;;;11.89;71.72;99514.70;106286;1271;96480;-67
2022/05/22 00:34:29;;;;;;;;;;;;;;;11.87;71.60;99509.36;106979;1270;124066;-67
2022/05/22 00:37:00;;;;;;;;;;;;;;;11.85;71.55;99509.66;107819;1271;108978;-68
2022/05/22 00:39:31;;;;;;;;;;;;;;;11.80;71.47;99512.48;107699;1271;124565;-67
2022/05/22 00:42:02;;;;;;;;;;;;;;;11.75;71.41;99512.88;107832;1271;94358;-68
2022/05/22 00:44:32;;;;;;;;;;;;;;;11.73;71.61;99507.98;107835;1271;94672;-68
2022/05/22 00:47:03;;;;;;;;;;;;;;;11.66;71.38;99519.06;107734;1271;124437;-68
2022/05/22 00:49:35;;;;;;;;;;;;;;;11.64;71.57;99518.45;107780;1271;107465;-67
2022/05/22 00:52:08;;;;;;;;;;;;;;;11.63;71.59;99516.46;106758;1272;125337;-67
2022/05/22 00:54:40;;;;;;;;;;;;;;;11.63;71.53;99519.05;107817;1271;95071;-68
2022/05/22 00:57:14;;;;;;;;;;;;;;;11.65;71.75;99515.83;107824;1271;94777;-67
2022/05/22 00:59:46;;;;;;;;;;;;;;;11.65;71.40;99509.91;107516;1270;124442;-67
2022/05/22 01:02:17;;;;;;;;;;;;;;;11.65;71.35;99507.63;106460;1271;109033;-67
2022/05/22 01:04:49;;;;;;;;;;;;;;;11.65;71.42;99501.89;106331;1270;125395;-67
2022/05/22 01:07:20;;;;;;;;;;;;;;;11.63;71.26;99502.16;107615;1270;96279;-68
2022/05/22 01:09:54;;;;;;;;;;;;;;;11.59;71.23;99511.74;107771;1270;124960;-68
2022/05/22 01:12:25;;;;;;;;;;;;;;;11.59;71.14;99505.83;107935;1270;109138;-68
2022/05/22 01:14:58;;;;;;;;;;;;;;;11.56;71.10;99503.91;107824;1270;109046;-68
2022/05/22 01:17:28;;;;;;;;;;;;;;;11.52;70.95;99510.70;107743;1271;126253;-67
2022/05/22 01:20:00;;;;;;;;;;;;;;;11.53;71.15;99512.61;106439;1271;97180;-67
2022/05/22 01:22:32;;;;;;;;;;;;;;;11.48;71.12;99516.25;107585;1271;123839;-68
2022/05/22 01:25:04;;;;;;;;;;;;;;;11.43;71.02;99513.36;107429;1271;110953;-67
2022/05/22 01:27:34;;;;;;;;;;;;;;;11.39;70.95;99518.42;107725;1271;124247;-67
2022/05/22 01:30:32;;;;;;;;;;;;;;;11.35;71.05;99513.77;106899;1271;108775;-66
2022/05/22 01:33:07;;;;;;;;;;;;;;;11.33;70.94;99518.92;107822;1271;95741;-67
2022/05/22 01:35:39;;;;;;;;;;;;;;;11.34;71.12;99521.31;107716;1271;125118;-67
2022/05/22 01:38:10;;;;;;;;;;;;;;;11.33;71.10;99518.92;107812;1270;110460;-67
2022/05/22 01:40:46;;;;;;;;;;;;;;;11.32;71.19;99520.90;107654;1271;124954;-67
2022/05/22 01:43:19;;;;;;;;;;;;;;;11.34;71.18;99529.48;107792;1271;107497;-67
2022/05/22 01:45:50;;;;;;;;;;;;;;;11.37;71.22;99527.58;107644;1271;124952;-67
2022/05/22 01:48:22;;;;;;;;;;;;;;;11.40;71.11;99529.58;106445;1271;96871;-66
2022/05/22 01:50:53;;;;;;;;;;;;;;;11.40;71.11;99522.21;106518;1272;109981;-67
2022/05/22 01:53:24;;;;;;;;;;;;;;;11.36;71.18;99522.41;107071;1271;125031;-67
2022/05/22 01:55:55;;;;;;;;;;;;;;;11.32;70.89;99532.20;106506;1271;109484;-68
2022/05/22 01:58:25;;;;;;;;;;;;;;;11.29;71.08;99534.75;107691;1271;124648;-68
2022/05/22 02:04:09;;;;;;;;;;;;;;;11.18;71.08;99531.23;104999;1284;125128;-70
2022/05/22 02:08:19;;;;;;;;;;;;;;;11.15;71.13;99538.73;105619;1284;109093;-68
2022/05/22 02:09:34;;;;;;;;;;;;;;;11.09;71.06;99541.59;105539;1283;124576;-67
2022/05/22 02:12:06;;;;;;;;;;;;;;;11.06;71.00;99539.83;105339;1284;96578;-69
2022/05/22 02:14:37;;;;;;;;;;;;;;;11.03;71.15;99539.27;106683;1284;94782;-69
2022/05/22 02:17:13;;;;;;;;;;;;;;;11.01;71.11;99535.36;106576;1282;125772;-67
2022/05/22 02:19:54;;;;;;;;;;;;;;;10.99;71.01;99543.27;106913;1282;109305;-68
2022/05/22 02:22:44;;;;;;;;;;;;;;;11.00;70.99;99544.27;105585;1282;124440;-68
2022/05/22 02:25:16;;;;;;;;;;;;;;;11.04;71.03;99538.16;105626;1284;96533;-68
2022/05/22 02:27:46;;;;;;;;;;;;;;;11.04;70.98;99534.33;105302;1284;124271;-68
2022/05/22 02:30:19;;;;;;;;;;;;;;;11.03;70.84;99538.23;105787;1282;111046;-68
2022/05/22 02:32:50;;;;;;;;;;;;;;;11.02;70.92;99538.43;106869;1281;109061;-68
2022/05/22 02:35:21;;;;;;;;;;;;;;;11.00;70.77;99539.39;105550;1282;124605;-68
2022/05/22 02:37:56;;;;;;;;;;;;;;;10.98;70.80;99541.41;105624;1282;96524;-67
2022/05/22 02:40:48;;;;;;;;;;;;;;;10.97;70.73;99532.60;105558;1282;123843;-68
2022/05/22 02:43:19;;;;;;;;;;;;;;;10.97;70.74;99538.35;105340;1284;109717;-68
2022/05/22 02:45:56;;;;;;;;;;;;;;;10.98;70.68;99537.77;105563;1282;124804;-68
2022/05/22 02:48:26;;;;;;;;;;;;;;;10.98;70.96;99539.14;105561;1284;108824;-68
2022/05/22 02:51:01;;;;;;;;;;;;;;;10.96;70.72;99539.27;105306;1284;96522;-68
2022/05/22 02:53:31;;;;;;;;;;;;;;;10.96;70.67;99545.19;105548;1283;126208;-68
2022/05/22 02:56:23;;;;;;;;;;;;;;;10.95;70.81;99542.41;106679;1282;111617;-69
2022/05/22 02:59:10;;;;;;;;;;;;;;;10.96;70.86;99540.83;105466;1284;125001;-68
2022/05/22 03:01:47;;;;;;;;;;;;;;;10.99;70.82;99538.94;105527;1284;109165;-67
2022/05/22 03:04:18;;;;;;;;;;;;;;;11.02;70.63;99543.34;106317;1281;124758;-68
2022/05/22 03:06:49;;;;;;;;;;;;;;;11.05;70.60;99542.31;105740;1281;96503;-68
2022/05/22 03:09:22;;;;;;;;;;;;;;;11.07;70.42;99544.82;105547;1284;110998;-69
2022/05/22 03:11:54;;;;;;;;;;;;;;;11.07;70.26;99547.24;105770;1282;108520;-70
2022/05/22 03:14:25;;;;;;;;;;;;;;;11.07;70.18;99551.25;106635;1282;193673;-68
2022/05/22 03:16:56;;;;;;;;;;;;;;;11.07;70.20;99549.52;105613;1284;125326;-68
2022/05/22 03:19:32;;;;;;;;;;;;;;;11.04;70.20;99548.96;105758;1282;96535;-69
2022/05/22 03:22:05;;;;;;;;;;;;;;;11.02;70.14;99551.49;105655;1282;124510;-69
2022/05/22 03:24:36;;;;;;;;;;;;;;;10.99;70.07;99546.59;106791;1281;107897;-68
2022/05/22 03:27:10;;;;;;;;;;;;;;;11.01;70.22;99549.30;106793;1282;108326;-68
2022/05/22 03:29:41;;;;;;;;;;;;;;;11.02;70.28;99550.81;106231;1282;124117;-68
2022/05/22 03:32:12;;;;;;;;;;;;;;;11.01;70.41;99550.02;105779;1282;96537;-70
2022/05/22 03:34:44;;;;;;;;;;;;;;;10.97;70.32;99544.27;106789;1284;125763;-68
2022/05/22 03:37:15;;;;;;;;;;;;;;;10.96;70.32;99545.68;106311;1284;108502;-68
2022/05/22 03:39:46;;;;;;;;;;;;;;;10.98;70.53;99545.25;105549;1282;125078;-68
2022/05/22 03:42:16;;;;;;;;;;;;;;;11.00;70.48;99547.59;105763;1281;96522;-68
2022/05/22 03:44:47;;;;;;;;;;;;;;;11.02;70.50;99543.83;106479;1281;96509;-67
2022/05/22 03:47:17;;;;;;;;;;;;;;;11.04;70.43;99544.27;106693;1281;125506;-69
2022/05/22 03:50:17;;;;;;;;;;;;;;;11.09;70.35;99542.81;106497;1282;106730;-68
2022/05/22 03:52:48;;;;;;;;;;;;;;;11.10;70.32;99548.31;106836;1281;124880;-69
2022/05/22 03:55:30;;;;;;;;;;;;;;;11.12;70.21;99543.71;106786;1283;95018;-68
2022/05/22 03:58:01;;;;;;;;;;;;;;;11.14;70.03;99550.42;106712;1281;124256;-68
2022/05/22 04:00:32;;;;;;;;;;;;;;;11.15;70.10;99548.31;106245;1282;108697;-68
2022/05/22 04:03:05;;;;;;;;;;;;;;;11.17;70.15;99546.46;105749;1281;108501;-68
2022/05/22 04:05:36;;;;;;;;;;;;;;;11.16;69.86;99557.09;106693;1281;124679;-69
2022/05/22 04:08:07;;;;;;;;;;;;;;;11.17;70.05;99554.98;106835;1281;94778;-69
2022/05/22 04:10:57;;;;;;;;;;;;;;;11.17;69.98;99551.68;106727;1281;123854;-69
2022/05/22 04:13:28;;;;;;;;;;;;;;;11.16;70.01;99554.35;106893;1281;111250;-68
2022/05/22 04:15:58;;;;;;;;;;;;;;;11.13;69.92;99554.63;106778;1281;124588;-70
2022/05/22 04:18:29;;;;;;;;;;;;;;;11.13;69.83;99555.14;106185;1282;108394;-69
2022/05/22 04:21:00;;;;;;;;;;;;;;;11.13;69.84;99557.23;105639;1282;96495;-68
2022/05/22 04:26:40;;;;;;;;;;;;;;;11.18;69.77;99556.85;106468;1282;109797;-68
2022/05/22 04:29:13;;;;;;;;;;;;;;;11.25;69.78;99559.64;105634;1281;124934;-69
2022/05/22 04:31:44;;;;;;;;;;;;;;;11.31;69.53;99556.43;106953;1281;106425;-68
2022/05/22 04:34:17;;;;;;;;;;;;;;;11.32;69.44;99558.48;106725;1281;126172;-69
2022/05/22 04:36:48;;;;;;;;;;;;;;;11.30;69.43;99552.64;107053;1280;94632;-70
2022/05/22 04:39:31;;;;;;;;;;;;;;;11.29;69.52;99548.66;106753;1281;125023;-69
2022/05/22 04:42:06;;;;;;;;;;;;;;;11.29;69.41;99548.50;106382;1282;107815;-68
2022/05/22 04:44:37;;;;;;;;;;;;;;;11.29;69.37;99554.74;106021;1281;107540;-67
2022/05/22 04:47:37;;;;;;;;;;;;;;;11.30;69.42;99552.47;106259;1281;124135;-70
2022/05/22 04:50:34;;;;;;;;;;;;;;;11.27;69.33;99553.98;106807;1281;94737;-68
2022/05/22 04:53:31;;;;;;;;;;;;;;;11.27;69.30;99550.50;105605;1281;125421;-67
2022/05/22 04:56:20;;;;;;;;;;;;;;;11.25;69.18;99550.06;106962;1281;108816;-67
2022/05/22 04:58:59;;;;;;;;;;;;;;;11.26;69.24;99555.61;106500;1282;124281;-67
2022/05/22 05:01:29;;;;;;;;;;;;;;;11.26;69.12;99556.48;106508;1282;97173;-69
2022/05/22 05:04:11;;;;;;;;;;;;;;;11.23;69.29;99553.98;106710;1281;124112;-69
2022/05/22 05:07:06;;;;;;;;;;;;;;;11.24;69.34;99556.59;106391;1282;110517;-68
2022/05/22 05:09:49;;;;;;;;;;;;;;;11.24;69.18;99556.92;106112;1281;124675;-67
2022/05/22 05:12:43;;;;;;;;;;;;;;;11.28;69.20;99560.39;106661;1281;108998;-68
2022/05/22 05:15:25;;;;;;;;;;;;;;;11.36;69.23;99560.38;106062;1282;96598;-67
2022/05/22 05:18:05;;;;;;;;;;;;;;;11.42;69.08;99567.59;106347;1282;95196;-67
2022/05/22 05:20:36;;;;;;;;;;;;;;;11.47;68.97;99560.88;105834;1281;110161;-68
2022/05/22 05:23:07;;;;;;;;;;;;;;;11.53;68.81;99562.39;106860;1281;125529;-67
2022/05/22 05:25:59;;;;;;;;;;;;;;;11.59;68.65;99561.73;106795;1282;107299;-67
2022/05/22 05:28:31;;;;;;;;;;;;;;;11.59;68.53;99561.73;106689;1281;126114;-70
2022/05/22 05:31:02;;;;;;;;;;;;;;;11.64;68.54;99562.00;106169;1282;96395;-69
2022/05/22 05:33:33;;;;;;;;;;;;;;;11.65;68.39;99565.27;106708;1281;124315;-68
2022/05/22 05:36:26;;;;;;;;;;;;;;;11.69;68.37;99565.64;106779;1281;108542;-69
2022/05/22 05:39:09;;;;;;;;;;;;;;;11.72;68.24;99562.15;105986;1281;108948;-68
2022/05/22 05:42:01;;;;;;;;;;;;;;;11.77;68.07;99560.69;105784;1281;96506;-69
2022/05/22 05:44:37;;;;;;;;;;;;;;;11.98;68.04;99561.27;105779;1281;96488;-67
2022/05/22 05:47:19;;;;;;;;;;;;;;;12.88;67.04;99555.61;105526;1282;124654;-69
2022/05/22 05:50:13;;;;;;;;;;;;;;;14.80;65.53;99547.90;105656;1281;109102;-68
2022/05/22 05:52:51;;;;;;;;;;;;;;;16.09;61.51;99541.58;106677;1281;125073;-70
2022/05/22 05:55:41;;;;;;;;;;;;;;;17.39;58.65;99542.30;106948;1281;94748;-70
2022/05/22 05:58:44;;;;;;;;;;;;;;;17.41;57.13;99544.41;106421;1282;124685;-68
2022/05/22 06:01:27;;;;;;;;;;;;;;;17.17;57.41;99548.40;105589;1282;110861;-68
2022/05/22 06:03:58;;;;;;;;;;;;;;;17.07;56.80;99552.14;105818;1282;124534;-69
2022/05/22 06:06:29;;;;;;;;;;;;;;;17.06;56.03;99549.05;106779;1281;108009;-68
2022/05/22 06:09:01;;;;;;;;;;;;;;;17.97;55.50;99541.72;106963;1281;94984;-70
2022/05/22 06:12:05;;;;;;;;;;;;;;;18.22;52.84;99536.59;106811;1281;95423;-69
2022/05/22 06:14:43;;;;;;;;;;;;;;;17.71;52.83;99547.17;105774;1281;110393;-67
2022/05/22 06:17:13;;;;;;;;;;;;;;;17.10;53.70;99549.11;106691;1281;123980;-69
2022/05/22 06:19:57;;;;;;;;;;;;;;;16.47;54.34;99555.16;106001;1282;107862;-67
2022/05/22 06:22:45;;;;;;;;;;;;;;;15.85;55.02;99558.05;106657;1281;124549;-69
2022/05/22 06:25:35;;;;;;;;;;;;;;;16.04;55.90;99556.75;106739;1281;96586;-69
2022/05/22 06:28:38;;;;;;;;;;;;;;;17.55;54.26;99559.45;105298;1282;124014;-69
2022/05/22 06:31:28;;;;;;;;;;;;;;;17.66;53.83;99564.77;105831;1281;107320;-70
2022/05/22 06:34:17;;;;;;;;;;;;;;;17.43;53.45;99559.54;106877;1281;124989;-68
2022/05/22 06:37:26;;;;;;;;;;;;;;;16.75;53.04;99557.29;105661;1285;96538;-68
2022/05/22 06:40:16;;;;;;;;;;;;;;;16.15;53.42;99552.89;105229;1284;125250;-68
2022/05/22 06:43:21;;;;;;;;;;;;;;;15.48;54.30;99558.42;106900;1281;111109;-69
2022/05/22 06:46:26;;;;;;;;;;;;;;;15.08;55.54;99563.58;105921;1281;124148;-69
2022/05/22 06:49:15;;;;;;;;;;;;;;;15.31;55.74;99561.10;106900;1281;108607;-69
2022/05/22 06:52:06;;;;;;;;;;;;;;;15.60;54.38;99559.77;106399;1281;124356;-69
2022/05/22 06:54:56;;;;;;;;;;;;;;;15.29;54.74;99561.23;105778;1281;96514;-68
2022/05/22 06:57:50;;;;;;;;;;;;;;;15.03;55.22;99560.76;106664;1281;124790;-68
2022/05/22 07:00:27;;;;;;;;;;;;;;;14.85;55.60;99563.56;105781;1281;107307;-68
2022/05/22 07:03:15;;;;;;;;;;;;;;;14.82;55.99;99564.64;105728;1281;108328;-69
2022/05/22 07:06:21;;;;;;;;;;;;;;;15.52;55.65;99559.62;106355;1287;94762;-69
2022/05/22 07:09:10;;;;;;;;;;;;;;;17.88;53.02;99556.45;106448;1282;94925;-69
2022/05/22 07:11:43;;;;;;;;;;;;;;;18.87;50.58;99548.72;106099;1282;123929;-68
2022/05/22 07:14:36;;;;;;;;;;;;;;;18.54;49.55;99549.27;105786;1282;108047;-67
2022/05/22 07:17:39;;;;;;;;;;;;;;;17.84;49.16;99556.29;105470;1282;125595;-67
2022/05/22 07:20:32;;;;;;;;;;;;;;;17.39;49.81;99557.91;105759;1281;96493;-69
2022/05/22 07:23:30;;;;;;;;;;;;;;;16.89;49.75;99554.73;105718;1282;124589;-69
2022/05/22 07:26:13;;;;;;;;;;;;;;;16.28;50.63;99563.76;105822;1282;111411;-69
2022/05/22 07:29:02;;;;;;;;;;;;;;;15.67;51.73;99566.23;105689;1282;125083;-69
2022/05/22 07:31:54;;;;;;;;;;;;;;;15.51;52.89;99566.15;105781;1282;109024;-69
2022/05/22 07:34:43;;;;;;;;;;;;;;;16.86;52.09;99559.11;105632;1281;124516;-67
2022/05/22 07:37:33;;;;;;;;;;;;;;;18.14;50.40;99554.06;105780;1281;96490;-68
2022/05/22 07:40:27;;;;;;;;;;;;;;;18.86;49.40;99548.96;106833;1281;124982;-69
2022/05/22 07:43:35;;;;;;;;;;;;;;;20.38;47.84;99543.03;106354;1287;108160;-69
2022/05/22 07:46:13;;;;;;;;;;;;;;;20.86;46.35;99544.11;104789;1287;125081;-69
2022/05/22 07:49:07;;;;;;;;;;;;;;;20.23;44.71;99548.88;105469;1282;96474;-70
2022/05/22 07:51:47;;;;;;;;;;;;;;;19.55;44.84;99553.22;105958;1282;125168;-69
2022/05/22 07:54:39;;;;;;;;;;;;;;;18.96;45.16;99562.09;105744;1282;111266;-69
2022/05/22 07:57:49;;;;;;;;;;;;;;;18.52;46.58;99563.34;105022;1287;124618;-69
2022/05/22 08:00:59;;;;;;;;;;;;;;;19.04;46.96;99556.52;105838;1290;108805;-69
2022/05/22 08:03:48;;;;;;;;;;;;;;;19.67;46.57;99552.57;106201;1287;124696;-69
2022/05/22 08:06:37;;;;;;;;;;;;;;;19.65;45.80;99556.94;106879;1281;94995;-68
2022/05/22 08:09:34;;;;;;;;;;;;;;;19.79;45.39;99558.50;106888;1280;124694;-69
2022/05/22 08:12:06;;;;;;;;;;;;;;;19.69;44.93;99554.74;107028;1281;107908;-69
2022/05/22 08:14:37;;;;;;;;;;;;;;;19.41;45.09;99554.81;106775;1281;107690;-69
2022/05/22 08:17:08;;;;;;;;;;;;;;;19.19;45.13;99550.02;106664;1281;124452;-68
2022/05/22 08:19:38;;;;;;;;;;;;;;;18.78;45.21;99559.83;107002;1281;94386;-68
2022/05/22 08:22:47;;;;;;;;;;;;;;;18.08;45.91;99563.99;106777;1281;124620;-68
2022/05/22 08:25:24;;;;;;;;;;;;;;;17.42;46.56;99571.93;106762;1281;107868;-68
2022/05/22 08:27:56;;;;;;;;;;;;;;;16.99;47.60;99566.73;105697;1282;124393;-68
2022/05/22 08:30:28;;;;;;;;;;;;;;;16.95;48.45;99571.52;105524;1282;96629;-68
2022/05/22 08:32:59;;;;;;;;;;;;;;;17.25;48.19;99570.34;106420;1281;95136;-68
2022/05/22 08:35:31;;;;;;;;;;;;;;;17.22;47.82;99565.42;105699;1281;123842;-68
2022/05/22 08:38:02;;;;;;;;;;;;;;;17.36;48.03;99560.29;106618;1282;107532;-68
2022/05/22 08:40:39;;;;;;;;;;;;;;;18.36;47.89;99544.84;106162;1281;124249;-68
2022/05/22 08:43:12;;;;;;;;;;;;;;;19.80;46.86;99550.65;105790;1281;96481;-68
2022/05/22 08:45:44;;;;;;;;;;;;;;;20.83;44.14;99539.90;106920;1281;124033;-68
2022/05/22 08:48:19;;;;;;;;;;;;;;;20.98;43.08;99535.77;106988;1281;111374;-69
2022/05/22 08:50:50;;;;;;;;;;;;;;;20.67;42.77;99540.83;107023;1281;107862;-67
2022/05/22 08:53:24;;;;;;;;;;;;;;;20.05;42.40;99535.86;106903;1281;125006;-67
2022/05/22 08:58:59;;;;;;;;;;;;;;;19.35;43.07;99543.83;106946;1281;124410;-68
2022/05/22 09:01:33;;;;;;;;;;;;;;;19.42;43.19;99537.31;107028;1281;111397;-68
2022/05/22 09:04:07;;;;;;;;;;;;;;;19.77;43.09;99546.88;106822;1281;124661;-68
2022/05/22 09:06:40;;;;;;;;;;;;;;;19.93;42.18;99545.84;106781;1281;108239;-68
2022/05/22 09:09:10;;;;;;;;;;;;;;;20.26;40.68;99535.36;107028;1281;95707;-69
2022/05/22 09:11:51;;;;;;;;;;;;;;;20.55;40.53;99540.73;106933;1280;125025;-68
2022/05/22 09:14:24;;;;;;;;;;;;;;;20.72;39.78;99540.73;106684;1281;109076;-67
2022/05/22 09:16:58;;;;;;;;;;;;;;;20.33;39.43;99547.35;106014;1281;124080;-68
2022/05/22 09:19:33;;;;;;;;;;;;;;;19.80;40.22;99553.25;106997;1279;107771;-68
2022/05/22 09:22:08;;;;;;;;;;;;;;;19.48;41.15;99548.09;106918;1281;125750;-68
2022/05/22 09:24:45;;;;;;;;;;;;;;;19.80;41.20;99541.80;107020;1281;94804;-68
2022/05/22 09:27:20;;;;;;;;;;;;;;;20.46;40.71;99537.63;107035;1281;111303;-68
2022/05/22 09:30:01;;;;;;;;;;;;;;;20.46;40.23;99534.74;106902;1280;124153;-68
2022/05/22 09:32:44;;;;;;;;;;;;;;;19.98;39.48;99538.61;106262;1281;108838;-68
2022/05/22 09:35:20;;;;;;;;;;;;;;;19.41;39.78;99540.06;105706;1281;124155;-68
2022/05/22 09:37:58;;;;;;;;;;;;;;;19.00;40.42;99543.84;105816;1282;96618;-69
2022/05/22 09:40:34;;;;;;;;;;;;;;;19.05;40.71;99539.22;105726;1282;123958;-68
2022/05/22 09:43:15;;;;;;;;;;;;;;;18.96;41.06;99539.85;105831;1282;108438;-68
2022/05/22 09:45:51;;;;;;;;;;;;;;;18.71;41.11;99542.21;106904;1280;124554;-69
2022/05/22 09:48:32;;;;;;;;;;;;;;;18.28;41.65;99558.24;107026;1282;94647;-68
2022/05/22 09:51:08;;;;;;;;;;;;;;;17.78;42.35;99557.23;107034;1282;94357;-69
2022/05/22 09:53:45;;;;;;;;;;;;;;;17.55;42.90;99555.19;106427;1282;124494;-68
2022/05/22 09:56:39;;;;;;;;;;;;;;;17.85;43.24;99549.83;106051;1282;108139;-69
2022/05/22 09:59:27;;;;;;;;;;;;;;;18.68;43.18;99546.64;106349;1281;125524;-69
2022/05/22 10:02:00;;;;;;;;;;;;;;;19.44;41.23;99533.05;105824;1282;97930;-69
2022/05/22 10:04:38;;;;;;;;;;;;;;;19.95;40.22;99533.02;106893;1281;124974;-68
2022/05/22 10:07:14;;;;;;;;;;;;;;;20.36;39.55;99532.60;107029;1281;112320;-67
2022/05/22 10:09:49;;;;;;;;;;;;;;;20.21;38.49;99535.83;106906;1282;125963;-67
2022/05/22 10:12:24;;;;;;;;;;;;;;;19.76;39.18;99544.63;106220;1282;108827;-68
2022/05/22 10:15:08;;;;;;;;;;;;;;;19.33;39.44;99542.27;105860;1282;97937;-69
2022/05/22 10:17:49;;;;;;;;;;;;;;;18.85;39.98;99544.63;105514;1282;125624;-68
2022/05/22 10:20:24;;;;;;;;;;;;;;;18.39;40.29;99545.83;106047;1282;113023;-69
2022/05/22 10:23:01;;;;;;;;;;;;;;;18.07;41.08;99546.77;105693;1282;124250;-69
2022/05/22 10:25:37;;;;;;;;;;;;;;;17.96;41.66;99549.02;105785;1281;109008;-69
2022/05/22 10:28:11;;;;;;;;;;;;;;;17.83;41.68;99548.27;105590;1282;124478;-68
2022/05/22 10:30:43;;;;;;;;;;;;;;;17.59;41.78;99544.52;107041;1281;96329;-69
2022/05/22 10:33:20;;;;;;;;;;;;;;;17.37;42.30;99549.98;107038;1281;111045;-69
2022/05/22 10:35:53;;;;;;;;;;;;;;;17.21;42.90;99556.19;106921;1282;124453;-68
2022/05/22 10:38:24;;;;;;;;;;;;;;;17.12;43.31;99556.64;107004;1281;108822;-69
2022/05/22 10:43:47;;;;;;;;;;;;;;;16.78;43.41;99554.31;107037;1280;96286;-69
2022/05/22 10:46:17;;;;;;;;;;;;;;;16.69;43.64;99552.83;106413;1282;124488;-69
2022/05/22 10:48:49;;;;;;;;;;;;;;;16.62;43.73;99554.33;105950;1282;109116;-68
2022/05/22 10:51:24;;;;;;;;;;;;;;;16.58;43.82;99553.31;106981;1281;107481;-68
2022/05/22 10:53:56;;;;;;;;;;;;;;;16.44;44.00;99563.24;106429;1281;97846;-68
2022/05/22 10:56:28;;;;;;;;;;;;;;;16.32;43.99;99552.61;105797;1282;97843;-68
2022/05/22 10:59:00;;;;;;;;;;;;;;;16.21;44.26;99554.45;105682;1282;125257;-68
2022/05/22 11:01:34;;;;;;;;;;;;;;;16.23;44.64;99560.10;105814;1282;109987;-69
2022/05/22 11:04:07;;;;;;;;;;;;;;;16.30;44.63;99559.41;105620;1282;124366;-69
2022/05/22 11:06:39;;;;;;;;;;;;;;;16.42;44.88;99563.89;106123;1281;97881;-69
2022/05/22 11:09:10;;;;;;;;;;;;;;;16.56;44.76;99559.63;105825;1282;97765;-68
2022/05/22 11:11:40;;;;;;;;;;;;;;;16.68;44.63;99553.02;105710;1282;124115;-69
2022/05/22 11:14:13;;;;;;;;;;;;;;;16.76;44.58;99554.92;105803;1282;109010;-69
2022/05/22 11:16:47;;;;;;;;;;;;;;;16.74;44.85;99557.73;106615;1282;125338;-67
2022/05/22 11:19:21;;;;;;;;;;;;;;;16.62;44.77;99556.23;107009;1281;96070;-67
2022/05/22 11:22:00;;;;;;;;;;;;;;;16.53;44.74;99558.83;106542;1281;124429;-68
2022/05/22 11:24:35;;;;;;;;;;;;;;;16.54;44.88;99558.90;105815;1281;112620;-68
2022/05/22 11:27:14;;;;;;;;;;;;;;;16.52;44.75;99558.52;105581;1282;109724;-69
2022/05/22 11:29:55;;;;;;;;;;;;;;;16.40;44.94;99561.25;105945;1281;126090;-68
2022/05/22 11:32:32;;;;;;;;;;;;;;;16.33;45.21;99563.11;105791;1282;97856;-68
2022/05/22 11:35:26;;;;;;;;;;;;;;;16.27;45.34;99565.96;105731;1282;124167;-69
2022/05/22 11:38:02;;;;;;;;;;;;;;;16.30;45.69;99565.94;105802;1282;112443;-69
2022/05/22 11:40:37;;;;;;;;;;;;;;;16.36;45.70;99571.52;105670;1282;124207;-68
2022/05/22 11:43:19;;;;;;;;;;;;;;;16.40;45.74;99573.54;105720;1282;109218;-68
2022/05/22 11:45:54;;;;;;;;;;;;;;;16.36;45.61;99571.54;106902;1281;124480;-69
2022/05/22 11:48:37;;;;;;;;;;;;;;;16.27;45.71;99572.09;105941;1282;97754;-68
2022/05/22 11:51:17;;;;;;;;;;;;;;;16.19;45.48;99568.45;105804;1282;112512;-68
2022/05/22 11:54:00;;;;;;;;;;;;;;;16.14;45.02;99570.67;106282;1281;124009;-68
2022/05/22 11:56:39;;;;;;;;;;;;;;;16.15;45.10;99573.94;105855;1282;107780;-67
2022/05/22 11:59:17;;;;;;;;;;;;;;;16.26;45.36;99573.52;105723;1282;124888;-68
2022/05/22 12:01:53;;;;;;;;;;;;;;;16.61;45.76;99574.36;106474;1282;96622;-68
2022/05/22 12:04:44;;;;;;;;;;;;;;;17.01;45.38;99573.92;106903;1281;124868;-69
2022/05/22 12:07:29;;;;;;;;;;;;;;;17.30;44.85;99576.09;106938;1281;109031;-69
2022/05/22 12:10:04;;;;;;;;;;;;;;;17.42;44.07;99576.35;106898;1281;125181;-69
2022/05/22 12:12:38;;;;;;;;;;;;;;;17.35;43.08;99577.75;106977;1281;96176;-68
2022/05/22 12:15:17;;;;;;;;;;;;;;;17.21;42.89;99577.10;106776;1281;96702;-69
2022/05/22 12:17:53;;;;;;;;;;;;;;;17.10;42.83;99581.22;105683;1281;124514;-68
2022/05/22 12:20:27;;;;;;;;;;;;;;;17.02;42.89;99585.42;105821;1282;108949;-68
2022/05/22 12:23:09;;;;;;;;;;;;;;;17.00;43.04;99585.09;105655;1281;125063;-68
2022/05/22 12:25:42;;;;;;;;;;;;;;;17.00;42.56;99577.91;105812;1282;97864;-69
2022/05/22 12:28:34;;;;;;;;;;;;;;;16.95;42.36;99579.42;106877;1281;123988;-68
2022/05/22 12:31:07;;;;;;;;;;;;;;;16.93;42.37;99577.49;105785;1282;113697;-68
2022/05/22 12:33:39;;;;;;;;;;;;;;;16.95;42.16;99580.19;106677;1281;124767;-69
2022/05/22 12:36:10;;;;;;;;;;;;;;;17.00;42.48;99587.02;107014;1281;108105;-69
2022/05/22 12:38:45;;;;;;;;;;;;;;;17.10;42.57;99581.27;106844;1281;96048;-69
2022/05/22 12:41:21;;;;;;;;;;;;;;;17.14;42.41;99590.93;106334;1280;124758;-68
2022/05/22 12:43:54;;;;;;;;;;;;;;;17.16;42.49;99592.77;105798;1281;111512;-68
2022/05/22 12:46:25;;;;;;;;;;;;;;;17.16;42.61;99591.02;105706;1282;124288;-68
2022/05/22 12:49:04;;;;;;;;;;;;;;;17.15;42.81;99593.84;105796;1282;109638;-68
2022/05/22 12:51:37;;;;;;;;;;;;;;;17.13;42.84;99597.00;106875;1281;124574;-68
2022/05/22 12:54:20;;;;;;;;;;;;;;;17.03;42.77;99592.77;106984;1281;96199;-68
2022/05/22 12:56:53;;;;;;;;;;;;;;;16.94;43.17;99599.75;107032;1279;111749;-68
2022/05/22 12:59:26;;;;;;;;;;;;;;;16.86;43.40;99594.63;106868;1281;124845;-68
2022/05/22 13:01:57;;;;;;;;;;;;;;;16.82;43.74;99593.35;106984;1282;108430;-68
2022/05/22 13:04:33;;;;;;;;;;;;;;;16.79;43.78;99592.98;106792;1281;124270;-68
2022/05/22 13:07:10;;;;;;;;;;;;;;;16.79;43.97;99585.14;106803;1282;96097;-68
2022/05/22 13:09:44;;;;;;;;;;;;;;;16.77;44.34;99597.38;106740;1282;124506;-68
2022/05/22 13:12:24;;;;;;;;;;;;;;;16.82;44.79;99598.27;105784;1282;108901;-68
2022/05/22 13:14:56;;;;;;;;;;;;;;;16.96;45.12;99596.79;105761;1282;108460;-69
2022/05/22 13:17:35;;;;;;;;;;;;;;;17.04;44.89;99601.11;105730;1282;124265;-69
2022/05/22 13:20:08;;;;;;;;;;;;;;;17.05;44.68;99600.73;106977;1281;95776;-69
2022/05/22 13:22:40;;;;;;;;;;;;;;;17.05;44.50;99598.81;106918;1281;124175;-69
2022/05/22 13:25:26;;;;;;;;;;;;;;;17.00;44.55;99603.70;106999;1282;109047;-70
2022/05/22 13:27:56;;;;;;;;;;;;;;;16.98;44.83;99601.23;106870;1281;125286;-69
2022/05/22 13:30:28;;;;;;;;;;;;;;;16.98;44.80;99603.49;106975;1281;96151;-70
2022/05/22 13:33:01;;;;;;;;;;;;;;;16.97;44.59;99602.72;106957;1281;95929;-69
2022/05/22 13:35:34;;;;;;;;;;;;;;;16.78;44.20;99608.54;106865;1280;124361;-69